Darden, Tennessee
Current Conditions -  °F | °C
As of 10:15 PM on Sunday 21 Dec 2014 (Local Time) from KPVE Reporting Station
Few Clouds Few Clouds  
Wind Chill: 35°   Ceiling: Unl
Heat Index: 39°   Visibility: 10mi
Dew Point: 36°   Wind: 6mph
Humidity: 87%   Direction: 130°SE
Pressure: 29.97"   Gusts: NA
Location:  35.64°N, 88.22°W
Report Text: KPVE 220415Z AUTO 13005KT 10SM FEW085 04/02 A2997 RMK
Loading
Personal Weather Stations






























Interactive Weather Map New forecast layout! Learn more

10-Day Weather Forecast

Advertisements
Track Severe Weather on mobile